sensor_id;sensor_type;location;lat;lon;timestamp;P1;durP1;ratioP1;P2;durP2;ratioP2
13202;SDS011;6666;51.626;7.530;2023-05-10T00:01:29;6.00;;;3.40;;
13202;SDS011;6666;51.626;7.530;2023-05-10T00:03:57;5.00;;;3.30;;
13202;SDS011;6666;51.626;7.530;2023-05-10T00:06:25;7.05;;;3.78;;
13202;SDS011;6666;51.626;7.530;2023-05-10T00:08:54;4.13;;;3.40;;
13202;SDS011;6666;51.626;7.530;2023-05-10T00:11:22;5.47;;;3.40;;
13202;SDS011;6666;51.626;7.530;2023-05-10T00:13:52;4.70;;;3.92;;
13202;SDS011;6666;51.626;7.530;2023-05-10T00:16:20;4.78;;;3.30;;
13202;SDS011;6666;51.626;7.530;2023-05-10T00:18:48;6.47;;;3.38;;
13202;SDS011;6666;51.626;7.530;2023-05-10T00:21:16;7.00;;;3.30;;
13202;SDS011;6666;51.626;7.530;2023-05-10T00:23:44;5.88;;;3.80;;
13202;SDS011;6666;51.626;7.530;2023-05-10T00:26:13;5.05;;;3.80;;
13202;SDS011;6666;51.626;7.530;2023-05-10T00:28:48;5.03;;;3.58;;
13202;SDS011;6666;51.626;7.530;2023-05-10T00:31:18;4.35;;;3.83;;
13202;SDS011;6666;51.626;7.530;2023-05-10T00:33:46;4.53;;;3.40;;
13202;SDS011;6666;51.626;7.530;2023-05-10T00:36:15;3.67;;;3.08;;
13202;SDS011;6666;51.626;7.530;2023-05-10T00:38:43;4.40;;;3.28;;
13202;SDS011;6666;51.626;7.530;2023-05-10T00:41:12;3.75;;;2.80;;
13202;SDS011;6666;51.626;7.530;2023-05-10T00:43:40;3.35;;;3.00;;
13202;SDS011;6666;51.626;7.530;2023-05-10T00:46:09;8.18;;;4.45;;
13202;SDS011;6666;51.626;7.530;2023-05-10T00:48:39;8.70;;;4.32;;
13202;SDS011;6666;51.626;7.530;2023-05-10T00:51:08;5.63;;;3.47;;
13202;SDS011;6666;51.626;7.530;2023-05-10T00:53:37;4.30;;;3.25;;
13202;SDS011;6666;51.626;7.530;2023-05-10T00:56:05;4.95;;;3.20;;
13202;SDS011;6666;51.626;7.530;2023-05-10T00:58:34;5.07;;;3.30;;
13202;SDS011;6666;51.626;7.530;2023-05-10T01:01:02;5.00;;;3.20;;
13202;SDS011;6666;51.626;7.530;2023-05-10T01:03:32;5.03;;;3.30;;
13202;SDS011;6666;51.626;7.530;2023-05-10T01:06:04;7.25;;;4.10;;
13202;SDS011;6666;51.626;7.530;2023-05-10T01:08:32;6.28;;;4.30;;
13202;SDS011;6666;51.626;7.530;2023-05-10T01:11:01;6.55;;;4.10;;
13202;SDS011;6666;51.626;7.530;2023-05-10T01:13:31;5.70;;;4.00;;
13202;SDS011;6666;51.626;7.530;2023-05-10T01:16:02;6.90;;;3.60;;
13202;SDS011;6666;51.626;7.530;2023-05-10T01:18:33;8.20;;;3.80;;
13202;SDS011;6666;51.626;7.530;2023-05-10T01:21:07;5.40;;;3.50;;
13202;SDS011;6666;51.626;7.530;2023-05-10T01:23:50;9.60;;;4.30;;
13202;SDS011;6666;51.626;7.530;2023-05-10T01:26:46;8.27;;;4.10;;
13202;SDS011;6666;51.626;7.530;2023-05-10T01:32:44;7.65;;;4.55;;
13202;SDS011;6666;51.626;7.530;2023-05-10T01:35:21;7.85;;;4.45;;
13202;SDS011;6666;51.626;7.530;2023-05-10T01:38:04;9.90;;;4.47;;
13202;SDS011;6666;51.626;7.530;2023-05-10T01:40:39;9.90;;;5.30;;
13202;SDS011;6666;51.626;7.530;2023-05-10T01:43:17;11.00;;;5.50;;
13202;SDS011;6666;51.626;7.530;2023-05-10T01:45:54;11.87;;;5.40;;
13202;SDS011;6666;51.626;7.530;2023-05-10T01:48:37;9.73;;;4.30;;
13202;SDS011;6666;51.626;7.530;2023-05-10T01:51:12;9.65;;;4.90;;
13202;SDS011;6666;51.626;7.530;2023-05-10T01:53:44;8.70;;;5.13;;
13202;SDS011;6666;51.626;7.530;2023-05-10T01:56:15;8.50;;;5.50;;
13202;SDS011;6666;51.626;7.530;2023-05-10T01:58:47;10.90;;;5.30;;
13202;SDS011;6666;51.626;7.530;2023-05-10T02:01:17;11.25;;;5.82;;
13202;SDS011;6666;51.626;7.530;2023-05-10T02:03:51;10.07;;;5.37;;
13202;SDS011;6666;51.626;7.530;2023-05-10T02:06:21;9.45;;;5.10;;
13202;SDS011;6666;51.626;7.530;2023-05-10T02:08:53;6.97;;;4.70;;
13202;SDS011;6666;51.626;7.530;2023-05-10T02:11:22;6.60;;;3.97;;
13202;SDS011;6666;51.626;7.530;2023-05-10T02:13:52;7.93;;;4.55;;
13202;SDS011;6666;51.626;7.530;2023-05-10T02:16:27;4.50;;;3.30;;
13202;SDS011;6666;51.626;7.530;2023-05-10T02:19:00;4.90;;;3.00;;
13202;SDS011;6666;51.626;7.530;2023-05-10T02:21:29;4.40;;;3.00;;
13202;SDS011;6666;51.626;7.530;2023-05-10T02:23:59;4.88;;;2.40;;
13202;SDS011;6666;51.626;7.530;2023-05-10T02:26:31;3.95;;;2.40;;
13202;SDS011;6666;51.626;7.530;2023-05-10T02:29:02;4.35;;;2.50;;
13202;SDS011;6666;51.626;7.530;2023-05-10T02:31:33;2.88;;;2.40;;
13202;SDS011;6666;51.626;7.530;2023-05-10T02:34:04;2.40;;;1.63;;
13202;SDS011;6666;51.626;7.530;2023-05-10T02:36:34;3.17;;;1.70;;
13202;SDS011;6666;51.626;7.530;2023-05-10T02:39:04;3.20;;;1.40;;
13202;SDS011;6666;51.626;7.530;2023-05-10T02:41:36;1.40;;;1.20;;
13202;SDS011;6666;51.626;7.530;2023-05-10T02:44:07;1.92;;;1.13;;
13202;SDS011;6666;51.626;7.530;2023-05-10T02:46:37;1.35;;;1.10;;
13202;SDS011;6666;51.626;7.530;2023-05-10T02:49:06;2.00;;;1.20;;
13202;SDS011;6666;51.626;7.530;2023-05-10T02:51:35;2.00;;;1.23;;
13202;SDS011;6666;51.626;7.530;2023-05-10T02:54:09;3.37;;;1.20;;
13202;SDS011;6666;51.626;7.530;2023-05-10T02:56:40;1.50;;;1.20;;
13202;SDS011;6666;51.626;7.530;2023-05-10T02:59:14;1.50;;;1.00;;
13202;SDS011;6666;51.626;7.530;2023-05-10T03:01:42;3.00;;;1.30;;
13202;SDS011;6666;51.626;7.530;2023-05-10T03:04:13;1.13;;;1.00;;
13202;SDS011;6666;51.626;7.530;2023-05-10T03:06:41;1.15;;;1.00;;
13202;SDS011;6666;51.626;7.530;2023-05-10T03:09:09;1.10;;;1.00;;
13202;SDS011;6666;51.626;7.530;2023-05-10T03:11:44;1.65;;;1.20;;
13202;SDS011;6666;51.626;7.530;2023-05-10T03:14:21;1.52;;;1.15;;
13202;SDS011;6666;51.626;7.530;2023-05-10T03:17:04;2.22;;;0.90;;
13202;SDS011;6666;51.626;7.530;2023-05-10T03:19:39;1.30;;;0.90;;
13202;SDS011;6666;51.626;7.530;2023-05-10T03:22:13;1.60;;;1.00;;
13202;SDS011;6666;51.626;7.530;2023-05-10T03:24:49;1.77;;;0.90;;
13202;SDS011;6666;51.626;7.530;2023-05-10T03:27:21;1.35;;;1.20;;
13202;SDS011;6666;51.626;7.530;2023-05-10T03:29:51;1.80;;;1.10;;
13202;SDS011;6666;51.626;7.530;2023-05-10T03:32:21;4.03;;;1.20;;
13202;SDS011;6666;51.626;7.530;2023-05-10T03:34:51;5.50;;;1.20;;
13202;SDS011;6666;51.626;7.530;2023-05-10T03:37:19;2.10;;;1.50;;
13202;SDS011;6666;51.626;7.530;2023-05-10T03:39:48;2.80;;;0.98;;
13202;SDS011;6666;51.626;7.530;2023-05-10T03:42:16;2.65;;;1.45;;
13202;SDS011;6666;51.626;7.530;2023-05-10T03:44:45;4.35;;;1.30;;
13202;SDS011;6666;51.626;7.530;2023-05-10T03:47:15;3.55;;;1.50;;
13202;SDS011;6666;51.626;7.530;2023-05-10T03:49:43;6.07;;;1.75;;
13202;SDS011;6666;51.626;7.530;2023-05-10T03:52:14;2.20;;;1.60;;
13202;SDS011;6666;51.626;7.530;2023-05-10T03:54:42;3.25;;;2.40;;
13202;SDS011;6666;51.626;7.530;2023-05-10T03:57:10;6.07;;;3.00;;
13202;SDS011;6666;51.626;7.530;2023-05-10T03:59:38;5.00;;;2.78;;
13202;SDS011;6666;51.626;7.530;2023-05-10T04:02:06;5.97;;;3.57;;
13202;SDS011;6666;51.626;7.530;2023-05-10T04:04:35;8.55;;;3.40;;
13202;SDS011;6666;51.626;7.530;2023-05-10T04:07:04;6.75;;;3.40;;
13202;SDS011;6666;51.626;7.530;2023-05-10T04:09:34;8.48;;;4.10;;
13202;SDS011;6666;51.626;7.530;2023-05-10T04:12:02;8.77;;;4.00;;
13202;SDS011;6666;51.626;7.530;2023-05-10T04:14:30;7.65;;;3.80;;
13202;SDS011;6666;51.626;7.530;2023-05-10T04:16:59;12.07;;;3.92;;
13202;SDS011;6666;51.626;7.530;2023-05-10T04:19:28;8.52;;;4.03;;
13202;SDS011;6666;51.626;7.530;2023-05-10T04:21:57;8.65;;;4.60;;
13202;SDS011;6666;51.626;7.530;2023-05-10T04:24:25;11.60;;;5.10;;
13202;SDS011;6666;51.626;7.530;2023-05-10T04:26:55;10.67;;;5.03;;
13202;SDS011;6666;51.626;7.530;2023-05-10T04:29:23;8.95;;;4.80;;
13202;SDS011;6666;51.626;7.530;2023-05-10T04:31:51;9.98;;;4.60;;
13202;SDS011;6666;51.626;7.530;2023-05-10T04:34:20;6.20;;;4.10;;
13202;SDS011;6666;51.626;7.530;2023-05-10T04:36:48;8.32;;;4.30;;
13202;SDS011;6666;51.626;7.530;2023-05-10T04:39:16;7.80;;;4.80;;
13202;SDS011;6666;51.626;7.530;2023-05-10T04:41:44;9.03;;;4.93;;
13202;SDS011;6666;51.626;7.530;2023-05-10T04:44:13;8.70;;;4.70;;
13202;SDS011;6666;51.626;7.530;2023-05-10T04:46:41;7.65;;;4.90;;
13202;SDS011;6666;51.626;7.530;2023-05-10T04:49:10;7.75;;;4.80;;
13202;SDS011;6666;51.626;7.530;2023-05-10T04:51:38;6.85;;;4.90;;
13202;SDS011;6666;51.626;7.530;2023-05-10T04:54:06;8.70;;;5.10;;
13202;SDS011;6666;51.626;7.530;2023-05-10T04:56:34;8.30;;;5.57;;
13202;SDS011;6666;51.626;7.530;2023-05-10T04:59:02;13.77;;;6.53;;
13202;SDS011;6666;51.626;7.530;2023-05-10T05:01:32;14.40;;;6.93;;
13202;SDS011;6666;51.626;7.530;2023-05-10T05:04:00;10.98;;;6.43;;
13202;SDS011;6666;51.626;7.530;2023-05-10T05:06:28;14.80;;;8.27;;
13202;SDS011;6666;51.626;7.530;2023-05-10T05:08:56;13.70;;;7.82;;
13202;SDS011;6666;51.626;7.530;2023-05-10T05:11:24;16.80;;;9.10;;
13202;SDS011;6666;51.626;7.530;2023-05-10T05:13:52;14.55;;;8.75;;
13202;SDS011;6666;51.626;7.530;2023-05-10T05:16:20;20.55;;;9.57;;
13202;SDS011;6666;51.626;7.530;2023-05-10T05:18:50;20.20;;;10.20;;
13202;SDS011;6666;51.626;7.530;2023-05-10T05:21:18;22.25;;;10.30;;
13202;SDS011;6666;51.626;7.530;2023-05-10T05:23:47;23.98;;;11.70;;
13202;SDS011;6666;51.626;7.530;2023-05-10T05:26:15;22.08;;;10.57;;
13202;SDS011;6666;51.626;7.530;2023-05-10T05:28:43;21.15;;;10.65;;
13202;SDS011;6666;51.626;7.530;2023-05-10T05:31:11;21.30;;;11.05;;
13202;SDS011;6666;51.626;7.530;2023-05-10T05:33:40;20.98;;;11.60;;
13202;SDS011;6666;51.626;7.530;2023-05-10T05:36:09;26.87;;;11.23;;
13202;SDS011;6666;51.626;7.530;2023-05-10T05:38:37;24.85;;;12.55;;
13202;SDS011;6666;51.626;7.530;2023-05-10T05:41:05;25.15;;;12.43;;
13202;SDS011;6666;51.626;7.530;2023-05-10T05:43:33;26.92;;;12.85;;
13202;SDS011;6666;51.626;7.530;2023-05-10T05:46:04;34.67;;;14.43;;
13202;SDS011;6666;51.626;7.530;2023-05-10T05:48:32;28.80;;;14.40;;
13202;SDS011;6666;51.626;7.530;2023-05-10T05:51:00;28.57;;;13.60;;
13202;SDS011;6666;51.626;7.530;2023-05-10T05:53:33;32.45;;;14.00;;
13202;SDS011;6666;51.626;7.530;2023-05-10T05:56:01;29.45;;;13.90;;
13202;SDS011;6666;51.626;7.530;2023-05-10T05:58:29;30.55;;;14.98;;
13202;SDS011;6666;51.626;7.530;2023-05-10T06:00:57;32.03;;;13.65;;
13202;SDS011;6666;51.626;7.530;2023-05-10T06:03:26;31.67;;;15.88;;
13202;SDS011;6666;51.626;7.530;2023-05-10T06:05:54;33.25;;;15.07;;
13202;SDS011;6666;51.626;7.530;2023-05-10T06:08:22;32.58;;;15.10;;
13202;SDS011;6666;51.626;7.530;2023-05-10T06:10:51;34.40;;;15.93;;
13202;SDS011;6666;51.626;7.530;2023-05-10T06:13:19;33.97;;;17.15;;
13202;SDS011;6666;51.626;7.530;2023-05-10T06:15:48;33.95;;;16.67;;
13202;SDS011;6666;51.626;7.530;2023-05-10T06:18:16;34.50;;;17.20;;
13202;SDS011;6666;51.626;7.530;2023-05-10T06:20:44;44.35;;;18.65;;
13202;SDS011;6666;51.626;7.530;2023-05-10T06:23:12;39.40;;;18.27;;
13202;SDS011;6666;51.626;7.530;2023-05-10T06:25:40;41.30;;;19.00;;
13202;SDS011;6666;51.626;7.530;2023-05-10T06:28:10;45.03;;;20.65;;
13202;SDS011;6666;51.626;7.530;2023-05-10T06:30:38;43.90;;;20.33;;
13202;SDS011;6666;51.626;7.530;2023-05-10T06:33:06;41.05;;;20.30;;
13202;SDS011;6666;51.626;7.530;2023-05-10T06:35:35;42.75;;;20.30;;
13202;SDS011;6666;51.626;7.530;2023-05-10T06:38:03;43.08;;;19.98;;
13202;SDS011;6666;51.626;7.530;2023-05-10T06:40:31;45.92;;;20.63;;
13202;SDS011;6666;51.626;7.530;2023-05-10T06:42:59;41.28;;;20.80;;
13202;SDS011;6666;51.626;7.530;2023-05-10T06:45:28;46.40;;;21.10;;
13202;SDS011;6666;51.626;7.530;2023-05-10T06:47:57;43.72;;;20.33;;
13202;SDS011;6666;51.626;7.530;2023-05-10T06:50:25;45.47;;;20.52;;
13202;SDS011;6666;51.626;7.530;2023-05-10T06:52:53;45.05;;;20.88;;
13202;SDS011;6666;51.626;7.530;2023-05-10T06:55:22;41.70;;;20.80;;
13202;SDS011;6666;51.626;7.530;2023-05-10T06:57:50;43.40;;;21.30;;
13202;SDS011;6666;51.626;7.530;2023-05-10T07:00:18;43.30;;;22.08;;
13202;SDS011;6666;51.626;7.530;2023-05-10T07:02:48;44.95;;;20.10;;
13202;SDS011;6666;51.626;7.530;2023-05-10T07:05:17;42.55;;;20.83;;
13202;SDS011;6666;51.626;7.530;2023-05-10T07:07:46;41.97;;;20.80;;
13202;SDS011;6666;51.626;7.530;2023-05-10T07:10:14;40.75;;;21.30;;
13202;SDS011;6666;51.626;7.530;2023-05-10T07:12:43;42.72;;;21.15;;
13202;SDS011;6666;51.626;7.530;2023-05-10T07:15:11;38.28;;;19.83;;
13202;SDS011;6666;51.626;7.530;2023-05-10T07:17:39;36.88;;;19.00;;
13202;SDS011;6666;51.626;7.530;2023-05-10T07:20:12;37.25;;;19.50;;
13202;SDS011;6666;51.626;7.530;2023-05-10T07:22:40;40.95;;;20.58;;
13202;SDS011;6666;51.626;7.530;2023-05-10T07:25:09;36.53;;;19.63;;
13202;SDS011;6666;51.626;7.530;2023-05-10T07:27:37;41.70;;;19.70;;
13202;SDS011;6666;51.626;7.530;2023-05-10T07:30:07;40.63;;;20.42;;
13202;SDS011;6666;51.626;7.530;2023-05-10T07:32:36;37.28;;;20.52;;
13202;SDS011;6666;51.626;7.530;2023-05-10T07:35:05;39.35;;;20.35;;
13202;SDS011;6666;51.626;7.530;2023-05-10T07:37:35;37.03;;;19.35;;
13202;SDS011;6666;51.626;7.530;2023-05-10T07:40:04;37.30;;;19.80;;
13202;SDS011;6666;51.626;7.530;2023-05-10T07:42:34;39.33;;;20.30;;
13202;SDS011;6666;51.626;7.530;2023-05-10T07:45:02;39.55;;;20.38;;
13202;SDS011;6666;51.626;7.530;2023-05-10T07:47:31;37.60;;;19.20;;
13202;SDS011;6666;51.626;7.530;2023-05-10T07:49:59;35.42;;;19.10;;
13202;SDS011;6666;51.626;7.530;2023-05-10T07:52:27;38.08;;;19.00;;
13202;SDS011;6666;51.626;7.530;2023-05-10T07:54:57;32.27;;;17.80;;
13202;SDS011;6666;51.626;7.530;2023-05-10T07:57:25;31.53;;;16.77;;
13202;SDS011;6666;51.626;7.530;2023-05-10T07:59:53;28.70;;;15.20;;
13202;SDS011;6666;51.626;7.530;2023-05-10T08:02:21;28.20;;;15.25;;
13202;SDS011;6666;51.626;7.530;2023-05-10T08:04:49;26.15;;;15.23;;
13202;SDS011;6666;51.626;7.530;2023-05-10T08:07:17;25.80;;;14.88;;
13202;SDS011;6666;51.626;7.530;2023-05-10T08:09:45;25.35;;;14.80;;
13202;SDS011;6666;51.626;7.530;2023-05-10T08:12:15;26.75;;;15.65;;
13202;SDS011;6666;51.626;7.530;2023-05-10T08:14:43;29.50;;;16.85;;
13202;SDS011;6666;51.626;7.530;2023-05-10T08:17:11;27.60;;;15.90;;
13202;SDS011;6666;51.626;7.530;2023-05-10T08:19:40;30.70;;;17.02;;
13202;SDS011;6666;51.626;7.530;2023-05-10T08:22:08;33.72;;;18.52;;
13202;SDS011;6666;51.626;7.530;2023-05-10T08:24:36;28.92;;;17.38;;
13202;SDS011;6666;51.626;7.530;2023-05-10T08:27:05;32.55;;;18.73;;
13202;SDS011;6666;51.626;7.530;2023-05-10T08:29:35;31.00;;;17.77;;
13202;SDS011;6666;51.626;7.530;2023-05-10T08:32:15;30.80;;;17.60;;
13202;SDS011;6666;51.626;7.530;2023-05-10T08:34:43;31.95;;;18.45;;
13202;SDS011;6666;51.626;7.530;2023-05-10T08:37:11;34.15;;;18.95;;
13202;SDS011;6666;51.626;7.530;2023-05-10T08:39:40;33.53;;;19.47;;
13202;SDS011;6666;51.626;7.530;2023-05-10T08:42:08;34.45;;;20.73;;
13202;SDS011;6666;51.626;7.530;2023-05-10T08:44:38;31.83;;;19.60;;
13202;SDS011;6666;51.626;7.530;2023-05-10T08:47:06;38.13;;;20.93;;
13202;SDS011;6666;51.626;7.530;2023-05-10T08:49:36;36.17;;;21.90;;
13202;SDS011;6666;51.626;7.530;2023-05-10T08:52:05;41.33;;;21.92;;
13202;SDS011;6666;51.626;7.530;2023-05-10T08:54:34;36.95;;;21.58;;
13202;SDS011;6666;51.626;7.530;2023-05-10T08:57:02;35.55;;;21.00;;
13202;SDS011;6666;51.626;7.530;2023-05-10T08:59:31;38.80;;;22.15;;
13202;SDS011;6666;51.626;7.530;2023-05-10T09:02:01;34.33;;;21.40;;
13202;SDS011;6666;51.626;7.530;2023-05-10T09:04:31;40.28;;;22.52;;
13202;SDS011;6666;51.626;7.530;2023-05-10T09:07:00;44.83;;;23.10;;
13202;SDS011;6666;51.626;7.530;2023-05-10T09:09:28;40.55;;;22.60;;
13202;SDS011;6666;51.626;7.530;2023-05-10T09:11:56;40.50;;;22.90;;
13202;SDS011;6666;51.626;7.530;2023-05-10T09:14:25;45.53;;;23.58;;
13202;SDS011;6666;51.626;7.530;2023-05-10T09:16:54;44.28;;;23.23;;
13202;SDS011;6666;51.626;7.530;2023-05-10T09:19:24;41.17;;;22.33;;
13202;SDS011;6666;51.626;7.530;2023-05-10T09:21:52;43.10;;;23.80;;
13202;SDS011;6666;51.626;7.530;2023-05-10T09:24:20;43.20;;;21.80;;
13202;SDS011;6666;51.626;7.530;2023-05-10T09:26:53;34.75;;;18.80;;
13202;SDS011;6666;51.626;7.530;2023-05-10T09:29:21;34.13;;;17.77;;
13202;SDS011;6666;51.626;7.530;2023-05-10T09:31:50;31.98;;;18.42;;
13202;SDS011;6666;51.626;7.530;2023-05-10T09:34:22;32.58;;;18.85;;
13202;SDS011;6666;51.626;7.530;2023-05-10T09:36:58;33.22;;;19.90;;
13202;SDS011;6666;51.626;7.530;2023-05-10T09:39:31;34.67;;;20.60;;
13202;SDS011;6666;51.626;7.530;2023-05-10T09:42:01;35.22;;;17.75;;
13202;SDS011;6666;51.626;7.530;2023-05-10T09:44:31;33.15;;;18.83;;
13202;SDS011;6666;51.626;7.530;2023-05-10T09:47:00;36.80;;;19.55;;
13202;SDS011;6666;51.626;7.530;2023-05-10T09:49:29;34.57;;;19.53;;
13202;SDS011;6666;51.626;7.530;2023-05-10T09:51:59;34.45;;;19.73;;
13202;SDS011;6666;51.626;7.530;2023-05-10T09:54:31;35.50;;;18.52;;
13202;SDS011;6666;51.626;7.530;2023-05-10T09:57:02;27.90;;;15.67;;
13202;SDS011;6666;51.626;7.530;2023-05-10T09:59:30;27.67;;;15.87;;
13202;SDS011;6666;51.626;7.530;2023-05-10T10:02:01;24.42;;;13.20;;
13202;SDS011;6666;51.626;7.530;2023-05-10T10:04:33;24.02;;;12.80;;
13202;SDS011;6666;51.626;7.530;2023-05-10T10:07:07;24.60;;;12.43;;
13202;SDS011;6666;51.626;7.530;2023-05-10T10:09:35;19.75;;;11.32;;
13202;SDS011;6666;51.626;7.530;2023-05-10T10:12:03;25.80;;;13.60;;
13202;SDS011;6666;51.626;7.530;2023-05-10T10:14:32;23.70;;;12.32;;
13202;SDS011;6666;51.626;7.530;2023-05-10T10:17:01;24.03;;;12.73;;
13202;SDS011;6666;51.626;7.530;2023-05-10T10:19:35;22.53;;;11.97;;
13202;SDS011;6666;51.626;7.530;2023-05-10T10:22:03;17.67;;;10.50;;
13202;SDS011;6666;51.626;7.530;2023-05-10T10:24:32;17.05;;;9.70;;
13202;SDS011;6666;51.626;7.530;2023-05-10T10:27:03;18.27;;;10.70;;
13202;SDS011;6666;51.626;7.530;2023-05-10T10:29:39;17.55;;;11.35;;
13202;SDS011;6666;51.626;7.530;2023-05-10T10:32:22;16.88;;;10.00;;
13202;SDS011;6666;51.626;7.530;2023-05-10T10:34:56;14.80;;;8.70;;
13202;SDS011;6666;51.626;7.530;2023-05-10T10:40:27;16.80;;;9.47;;
13202;SDS011;6666;51.626;7.530;2023-05-10T10:43:20;13.70;;;7.95;;
13202;SDS011;6666;51.626;7.530;2023-05-10T10:48:40;12.32;;;7.40;;
13202;SDS011;6666;51.626;7.530;2023-05-10T10:51:11;13.07;;;8.05;;
13202;SDS011;6666;51.626;7.530;2023-05-10T10:53:41;15.00;;;9.10;;
13202;SDS011;6666;51.626;7.530;2023-05-10T10:56:11;15.97;;;9.53;;
13202;SDS011;6666;51.626;7.530;2023-05-10T10:58:42;24.98;;;14.40;;
13202;SDS011;6666;51.626;7.530;2023-05-10T11:01:18;18.60;;;11.70;;
13202;SDS011;6666;51.626;7.530;2023-05-10T11:03:55;16.30;;;8.57;;
13202;SDS011;6666;51.626;7.530;2023-05-10T11:06:47;12.40;;;7.60;;
13202;SDS011;6666;51.626;7.530;2023-05-10T11:09:16;21.05;;;12.55;;
13202;SDS011;6666;51.626;7.530;2023-05-10T11:11:51;22.27;;;12.93;;
13202;SDS011;6666;51.626;7.530;2023-05-10T11:14:21;23.83;;;13.43;;
13202;SDS011;6666;51.626;7.530;2023-05-10T11:16:50;24.75;;;14.00;;
13202;SDS011;6666;51.626;7.530;2023-05-10T11:19:18;28.75;;;14.48;;
13202;SDS011;6666;51.626;7.530;2023-05-10T11:21:48;28.10;;;15.60;;
13202;SDS011;6666;51.626;7.530;2023-05-10T11:24:18;30.05;;;16.88;;
13202;SDS011;6666;51.626;7.530;2023-05-10T11:26:49;30.80;;;15.90;;
13202;SDS011;6666;51.626;7.530;2023-05-10T11:29:18;32.35;;;15.93;;
13202;SDS011;6666;51.626;7.530;2023-05-10T11:31:47;28.63;;;16.35;;
13202;SDS011;6666;51.626;7.530;2023-05-10T11:34:22;30.10;;;16.70;;
13202;SDS011;6666;51.626;7.530;2023-05-10T11:36:53;30.35;;;16.33;;
13202;SDS011;6666;51.626;7.530;2023-05-10T11:39:25;30.63;;;15.48;;
13202;SDS011;6666;51.626;7.530;2023-05-10T11:41:54;27.83;;;15.88;;
13202;SDS011;6666;51.626;7.530;2023-05-10T11:44:23;28.25;;;16.80;;
13202;SDS011;6666;51.626;7.530;2023-05-10T11:46:51;30.13;;;16.00;;
13202;SDS011;6666;51.626;7.530;2023-05-10T11:49:20;29.67;;;15.70;;
13202;SDS011;6666;51.626;7.530;2023-05-10T11:51:50;26.60;;;15.05;;
13202;SDS011;6666;51.626;7.530;2023-05-10T11:54:20;24.90;;;13.98;;
13202;SDS011;6666;51.626;7.530;2023-05-10T11:56:48;24.80;;;13.67;;
13202;SDS011;6666;51.626;7.530;2023-05-10T11:59:18;25.83;;;13.45;;
13202;SDS011;6666;51.626;7.530;2023-05-10T12:01:46;25.50;;;14.32;;
13202;SDS011;6666;51.626;7.530;2023-05-10T12:04:15;25.40;;;13.57;;
13202;SDS011;6666;51.626;7.530;2023-05-10T12:06:44;20.50;;;13.30;;
13202;SDS011;6666;51.626;7.530;2023-05-10T12:09:14;24.75;;;15.52;;
13202;SDS011;6666;51.626;7.530;2023-05-10T12:11:48;25.80;;;17.92;;
13202;SDS011;6666;51.626;7.530;2023-05-10T12:14:16;34.05;;;21.65;;
13202;SDS011;6666;51.626;7.530;2023-05-10T12:16:46;37.63;;;22.00;;
13202;SDS011;6666;51.626;7.530;2023-05-10T12:19:17;40.65;;;24.15;;
13202;SDS011;6666;51.626;7.530;2023-05-10T12:21:46;38.33;;;22.17;;
13202;SDS011;6666;51.626;7.530;2023-05-10T12:24:16;33.42;;;19.70;;
13202;SDS011;6666;51.626;7.530;2023-05-10T12:26:45;27.73;;;18.27;;
13202;SDS011;6666;51.626;7.530;2023-05-10T12:29:15;26.57;;;16.80;;
13202;SDS011;6666;51.626;7.530;2023-05-10T12:31:51;28.95;;;18.40;;
13202;SDS011;6666;51.626;7.530;2023-05-10T12:34:23;30.80;;;17.35;;
13202;SDS011;6666;51.626;7.530;2023-05-10T12:36:52;25.45;;;15.40;;
13202;SDS011;6666;51.626;7.530;2023-05-10T12:39:22;23.83;;;14.60;;
13202;SDS011;6666;51.626;7.530;2023-05-10T12:41:50;21.10;;;12.55;;
13202;SDS011;6666;51.626;7.530;2023-05-10T12:44:18;22.80;;;13.00;;
13202;SDS011;6666;51.626;7.530;2023-05-10T12:46:46;22.27;;;12.95;;
13202;SDS011;6666;51.626;7.530;2023-05-10T12:49:15;23.15;;;14.20;;
13202;SDS011;6666;51.626;7.530;2023-05-10T12:51:45;26.15;;;15.40;;
13202;SDS011;6666;51.626;7.530;2023-05-10T12:54:13;26.83;;;15.80;;
13202;SDS011;6666;51.626;7.530;2023-05-10T12:56:42;18.47;;;10.77;;
13202;SDS011;6666;51.626;7.530;2023-05-10T12:59:10;17.00;;;9.33;;
13202;SDS011;6666;51.626;7.530;2023-05-10T13:01:38;16.48;;;9.48;;
13202;SDS011;6666;51.626;7.530;2023-05-10T13:04:06;15.60;;;9.90;;
13202;SDS011;6666;51.626;7.530;2023-05-10T13:06:35;18.60;;;10.20;;
13202;SDS011;6666;51.626;7.530;2023-05-10T13:09:03;22.90;;;12.50;;
13202;SDS011;6666;51.626;7.530;2023-05-10T13:11:31;17.17;;;9.80;;
13202;SDS011;6666;51.626;7.530;2023-05-10T13:14:00;13.23;;;8.10;;
13202;SDS011;6666;51.626;7.530;2023-05-10T13:16:29;10.85;;;7.13;;
13202;SDS011;6666;51.626;7.530;2023-05-10T13:18:57;12.68;;;7.50;;
13202;SDS011;6666;51.626;7.530;2023-05-10T13:21:26;12.60;;;7.80;;
13202;SDS011;6666;51.626;7.530;2023-05-10T13:23:54;12.05;;;7.18;;
13202;SDS011;6666;51.626;7.530;2023-05-10T13:26:22;11.23;;;7.63;;
13202;SDS011;6666;51.626;7.530;2023-05-10T13:28:50;12.27;;;8.00;;
13202;SDS011;6666;51.626;7.530;2023-05-10T13:31:19;12.15;;;8.10;;
13202;SDS011;6666;51.626;7.530;2023-05-10T13:33:47;12.10;;;7.32;;
13202;SDS011;6666;51.626;7.530;2023-05-10T13:36:16;9.03;;;6.53;;
13202;SDS011;6666;51.626;7.530;2023-05-10T13:38:44;64.22;;;10.70;;
13202;SDS011;6666;51.626;7.530;2023-05-10T13:41:12;30.65;;;9.85;;
13202;SDS011;6666;51.626;7.530;2023-05-10T13:43:40;17.20;;;6.85;;
13202;SDS011;6666;51.626;7.530;2023-05-10T13:46:08;11.07;;;6.95;;
13202;SDS011;6666;51.626;7.530;2023-05-10T13:48:38;9.30;;;6.10;;
13202;SDS011;6666;51.626;7.530;2023-05-10T13:51:06;10.68;;;7.13;;
13202;SDS011;6666;51.626;7.530;2023-05-10T13:53:34;13.23;;;7.50;;
13202;SDS011;6666;51.626;7.530;2023-05-10T13:56:02;14.43;;;8.70;;
13202;SDS011;6666;51.626;7.530;2023-05-10T13:58:31;14.93;;;9.15;;
13202;SDS011;6666;51.626;7.530;2023-05-10T14:00:59;18.88;;;10.60;;
13202;SDS011;6666;51.626;7.530;2023-05-10T14:03:27;18.20;;;11.20;;
13202;SDS011;6666;51.626;7.530;2023-05-10T14:05:56;17.27;;;12.00;;
13202;SDS011;6666;51.626;7.530;2023-05-10T14:08:25;21.95;;;13.48;;
13202;SDS011;6666;51.626;7.530;2023-05-10T14:10:54;20.95;;;13.20;;
13202;SDS011;6666;51.626;7.530;2023-05-10T14:13:23;17.88;;;11.48;;
13202;SDS011;6666;51.626;7.530;2023-05-10T14:15:52;17.27;;;11.65;;
13202;SDS011;6666;51.626;7.530;2023-05-10T14:18:20;15.52;;;10.10;;
13202;SDS011;6666;51.626;7.530;2023-05-10T14:20:49;17.10;;;10.75;;
13202;SDS011;6666;51.626;7.530;2023-05-10T14:23:18;17.20;;;10.15;;
13202;SDS011;6666;51.626;7.530;2023-05-10T14:25:50;13.55;;;9.65;;
13202;SDS011;6666;51.626;7.530;2023-05-10T14:28:18;16.38;;;10.27;;
13202;SDS011;6666;51.626;7.530;2023-05-10T14:30:47;14.27;;;9.32;;
13202;SDS011;6666;51.626;7.530;2023-05-10T14:33:16;13.73;;;9.07;;
13202;SDS011;6666;51.626;7.530;2023-05-10T14:35:44;11.60;;;8.00;;
13202;SDS011;6666;51.626;7.530;2023-05-10T14:38:13;12.10;;;8.93;;
13202;SDS011;6666;51.626;7.530;2023-05-10T14:40:42;15.95;;;9.00;;
13202;SDS011;6666;51.626;7.530;2023-05-10T14:43:10;14.93;;;10.15;;
13202;SDS011;6666;51.626;7.530;2023-05-10T14:45:38;14.70;;;9.80;;
13202;SDS011;6666;51.626;7.530;2023-05-10T14:48:06;14.75;;;9.80;;
13202;SDS011;6666;51.626;7.530;2023-05-10T14:50:38;13.65;;;7.55;;
13202;SDS011;6666;51.626;7.530;2023-05-10T14:53:06;9.60;;;6.82;;
13202;SDS011;6666;51.626;7.530;2023-05-10T14:55:34;9.73;;;6.35;;
13202;SDS011;6666;51.626;7.530;2023-05-10T14:58:04;10.43;;;6.10;;
13202;SDS011;6666;51.626;7.530;2023-05-10T15:00:32;10.63;;;7.50;;
13202;SDS011;6666;51.626;7.530;2023-05-10T15:03:02;14.15;;;9.00;;
13202;SDS011;6666;51.626;7.530;2023-05-10T15:05:31;9.38;;;6.18;;
13202;SDS011;6666;51.626;7.530;2023-05-10T15:07:59;8.68;;;5.70;;
13202;SDS011;6666;51.626;7.530;2023-05-10T15:10:27;8.93;;;5.50;;